sensor_id;sensor_type;location;lat;lon;timestamp;pressure;altitude;pressure_sealevel;temperature;humidity
22181;BME280;11256;50.830;12.834;2023-01-23T00:01:50;99034.59;;;1.07;85.03
22181;BME280;11256;50.830;12.834;2023-01-23T00:06:50;99039.75;;;1.09;85.49
22181;BME280;11256;50.830;12.834;2023-01-23T00:11:51;99037.19;;;1.01;85.25
22181;BME280;11256;50.830;12.834;2023-01-23T00:16:51;99037.19;;;1.01;85.37
22181;BME280;11256;50.830;12.834;2023-01-23T00:21:51;99032.69;;;1.01;85.75
22181;BME280;11256;50.830;12.834;2023-01-23T00:26:52;99023.13;;;0.92;85.94
22181;BME280;11256;50.830;12.834;2023-01-23T00:31:52;99032.22;;;0.98;86.19
22181;BME280;11256;50.830;12.834;2023-01-23T00:36:53;99032.97;;;0.92;86.13
22181;BME280;11256;50.830;12.834;2023-01-23T00:41:56;99030.50;;;0.90;85.92
22181;BME280;11256;50.830;12.834;2023-01-23T00:46:57;99058.09;;;0.97;86.31
22181;BME280;11256;50.830;12.834;2023-01-23T00:51:58;99060.94;;;0.96;86.26
22181;BME280;11256;50.830;12.834;2023-01-23T00:57:01;99043.56;;;0.85;86.27
22181;BME280;11256;50.830;12.834;2023-01-23T01:02:01;99064.97;;;0.92;86.75
22181;BME280;11256;50.830;12.834;2023-01-23T01:07:02;99073.63;;;0.94;86.80
22181;BME280;11256;50.830;12.834;2023-01-23T01:12:02;99060.94;;;0.81;86.49
22181;BME280;11256;50.830;12.834;2023-01-23T01:17:04;99084.38;;;0.86;87.29
22181;BME280;11256;50.830;12.834;2023-01-23T01:22:04;99068.50;;;0.78;86.60
22181;BME280;11256;50.830;12.834;2023-01-23T01:27:04;99097.72;;;0.86;87.00
22181;BME280;11256;50.830;12.834;2023-01-23T01:32:05;99102.25;;;0.85;86.64
22181;BME280;11256;50.830;12.834;2023-01-23T01:37:05;99108.41;;;0.86;86.69
22181;BME280;11256;50.830;12.834;2023-01-23T01:42:05;99110.03;;;0.87;87.04
22181;BME280;11256;50.830;12.834;2023-01-23T01:47:06;99106.75;;;0.85;86.88
22181;BME280;11256;50.830;12.834;2023-01-23T01:52:10;99115.66;;;0.77;87.03
22181;BME280;11256;50.830;12.834;2023-01-23T01:57:34;99133.06;;;0.88;87.12
22181;BME280;11256;50.830;12.834;2023-01-23T02:02:42;99121.56;;;0.73;87.02
22181;BME280;11256;50.830;12.834;2023-01-23T02:07:51;99125.69;;;0.75;86.94
22181;BME280;11256;50.830;12.834;2023-01-23T02:12:53;99127.69;;;0.73;87.54
22181;BME280;11256;50.830;12.834;2023-01-23T02:17:54;99140.78;;;0.83;87.17
22181;BME280;11256;50.830;12.834;2023-01-23T02:23:05;99142.44;;;0.84;87.22
22181;BME280;11256;50.830;12.834;2023-01-23T02:28:11;99140.13;;;0.81;87.19
22181;BME280;11256;50.830;12.834;2023-01-23T02:38:24;99143.06;;;0.86;87.47
22181;BME280;11256;50.830;12.834;2023-01-23T02:43:27;99139.13;;;0.82;87.15
22181;BME280;11256;50.830;12.834;2023-01-23T02:48:36;99138.31;;;0.81;87.47
22181;BME280;11256;50.830;12.834;2023-01-23T02:53:39;99147.16;;;0.82;87.22
22181;BME280;11256;50.830;12.834;2023-01-23T02:58:41;99146.75;;;0.85;86.92
22181;BME280;11256;50.830;12.834;2023-01-23T03:04:02;99147.78;;;0.84;87.07
22181;BME280;11256;50.830;12.834;2023-01-23T03:09:10;99138.41;;;0.88;87.54
22181;BME280;11256;50.830;12.834;2023-01-23T03:14:20;99123.84;;;0.76;87.10
22181;BME280;11256;50.830;12.834;2023-01-23T03:19:22;99124.34;;;0.79;87.49
22181;BME280;11256;50.830;12.834;2023-01-23T03:24:23;99107.66;;;0.77;87.09
22181;BME280;11256;50.830;12.834;2023-01-23T03:29:24;99111.97;;;0.78;86.70
22181;BME280;11256;50.830;12.834;2023-01-23T03:34:45;99120.66;;;0.80;86.86
22181;BME280;11256;50.830;12.834;2023-01-23T03:39:45;99133.53;;;0.91;86.52
22181;BME280;11256;50.830;12.834;2023-01-23T03:45:05;99138.03;;;0.91;86.54
22181;BME280;11256;50.830;12.834;2023-01-23T03:50:09;99129.00;;;0.92;86.95
22181;BME280;11256;50.830;12.834;2023-01-23T03:55:11;99127.06;;;0.86;86.75
22181;BME280;11256;50.830;12.834;2023-01-23T04:00:12;99142.00;;;0.95;86.84
22181;BME280;11256;50.830;12.834;2023-01-23T04:05:21;99138.94;;;0.98;86.95
22181;BME280;11256;50.830;12.834;2023-01-23T04:10:22;99136.03;;;0.93;86.66
22181;BME280;11256;50.830;12.834;2023-01-23T04:15:27;99133.44;;;0.85;87.03
22181;BME280;11256;50.830;12.834;2023-01-23T04:20:30;99150.34;;;0.92;87.30
22181;BME280;11256;50.830;12.834;2023-01-23T04:25:31;99162.69;;;0.93;86.98
22181;BME280;11256;50.830;12.834;2023-01-23T04:30:32;99152.28;;;0.83;86.83
22181;BME280;11256;50.830;12.834;2023-01-23T04:35:38;99160.72;;;0.87;87.09
22181;BME280;11256;50.830;12.834;2023-01-23T04:40:39;99163.06;;;0.90;86.81
22181;BME280;11256;50.830;12.834;2023-01-23T04:45:39;99171.34;;;0.95;87.29
22181;BME280;11256;50.830;12.834;2023-01-23T04:51:06;99147.50;;;0.79;86.63
22181;BME280;11256;50.830;12.834;2023-01-23T04:56:06;99192.03;;;0.93;87.12
22181;BME280;11256;50.830;12.834;2023-01-23T05:01:07;99203.34;;;0.95;86.65
22181;BME280;11256;50.830;12.834;2023-01-23T05:06:09;99167.75;;;0.88;86.84
22181;BME280;11256;50.830;12.834;2023-01-23T05:11:09;99190.28;;;1.00;87.09
22181;BME280;11256;50.830;12.834;2023-01-23T05:16:10;99189.75;;;1.04;87.14
22181;BME280;11256;50.830;12.834;2023-01-23T05:21:30;99182.34;;;0.92;86.27
22181;BME280;11256;50.830;12.834;2023-01-23T05:26:31;99193.97;;;0.99;87.41
22181;BME280;11256;50.830;12.834;2023-01-23T05:31:32;99195.63;;;1.00;87.60
22181;BME280;11256;50.830;12.834;2023-01-23T05:36:52;99212.09;;;1.03;87.10
22181;BME280;11256;50.830;12.834;2023-01-23T05:41:52;99181.44;;;0.85;87.26
22181;BME280;11256;50.830;12.834;2023-01-23T05:47:04;99209.25;;;1.05;87.49
22181;BME280;11256;50.830;12.834;2023-01-23T05:52:05;99195.91;;;0.90;87.75
22181;BME280;11256;50.830;12.834;2023-01-23T05:57:07;99216.97;;;1.00;87.30
22181;BME280;11256;50.830;12.834;2023-01-23T06:02:46;99223.13;;;1.00;87.93
22181;BME280;11256;50.830;12.834;2023-01-23T06:07:49;99241.16;;;0.98;88.16
22181;BME280;11256;50.830;12.834;2023-01-23T06:12:49;99249.72;;;0.94;87.71
22181;BME280;11256;50.830;12.834;2023-01-23T06:17:50;99245.59;;;0.91;87.65
22181;BME280;11256;50.830;12.834;2023-01-23T06:22:50;99250.06;;;0.91;87.72
22181;BME280;11256;50.830;12.834;2023-01-23T06:27:50;99251.09;;;0.90;88.13
22181;BME280;11256;50.830;12.834;2023-01-23T06:32:51;99243.09;;;0.90;88.14
22181;BME280;11256;50.830;12.834;2023-01-23T06:37:55;99248.72;;;0.95;88.14
22181;BME280;11256;50.830;12.834;2023-01-23T06:42:56;99264.91;;;0.93;88.27
22181;BME280;11256;50.830;12.834;2023-01-23T06:47:56;99277.47;;;0.85;88.22
22181;BME280;11256;50.830;12.834;2023-01-23T06:52:57;99273.78;;;0.86;88.27
22181;BME280;11256;50.830;12.834;2023-01-23T06:57:57;99267.53;;;0.79;88.46
22181;BME280;11256;50.830;12.834;2023-01-23T07:03:00;99285.78;;;0.90;88.13
22181;BME280;11256;50.830;12.834;2023-01-23T07:08:03;99284.84;;;0.83;87.84
22181;BME280;11256;50.830;12.834;2023-01-23T07:13:04;99291.72;;;0.77;87.75
22181;BME280;11256;50.830;12.834;2023-01-23T07:18:05;99309.16;;;0.88;87.83
22181;BME280;11256;50.830;12.834;2023-01-23T07:23:05;99315.00;;;0.83;87.90
22181;BME280;11256;50.830;12.834;2023-01-23T07:28:06;99337.09;;;0.92;87.70
22181;BME280;11256;50.830;12.834;2023-01-23T07:33:06;99318.38;;;0.77;88.03
22181;BME280;11256;50.830;12.834;2023-01-23T07:38:06;99347.44;;;0.95;87.60
22181;BME280;11256;50.830;12.834;2023-01-23T07:43:07;99347.31;;;0.88;87.24
22181;BME280;11256;50.830;12.834;2023-01-23T07:48:07;99365.22;;;1.02;87.54
22181;BME280;11256;50.830;12.834;2023-01-23T07:53:08;99361.38;;;1.05;87.37
22181;BME280;11256;50.830;12.834;2023-01-23T07:58:08;99371.88;;;1.06;87.16
22181;BME280;11256;50.830;12.834;2023-01-23T08:03:08;99383.66;;;1.12;86.94
22181;BME280;11256;50.830;12.834;2023-01-23T08:08:09;99374.00;;;1.11;87.64
22181;BME280;11256;50.830;12.834;2023-01-23T08:13:09;99354.28;;;1.12;87.18
22181;BME280;11256;50.830;12.834;2023-01-23T08:18:09;99352.56;;;1.19;87.69
22181;BME280;11256;50.830;12.834;2023-01-23T08:23:10;99374.78;;;1.34;87.18
22181;BME280;11256;50.830;12.834;2023-01-23T08:28:10;99369.75;;;1.39;86.68
22181;BME280;11256;50.830;12.834;2023-01-23T08:33:10;99387.38;;;1.48;86.07
22181;BME280;11256;50.830;12.834;2023-01-23T08:38:11;99375.72;;;1.41;86.29
22181;BME280;11256;50.830;12.834;2023-01-23T08:43:11;99390.31;;;1.53;86.04
22181;BME280;11256;50.830;12.834;2023-01-23T08:48:13;99379.25;;;1.56;86.26
22181;BME280;11256;50.830;12.834;2023-01-23T08:53:13;99374.38;;;1.59;86.10
22181;BME280;11256;50.830;12.834;2023-01-23T08:58:14;99389.31;;;1.68;86.13
22181;BME280;11256;50.830;12.834;2023-01-23T09:03:14;99378.53;;;1.62;85.60
22181;BME280;11256;50.830;12.834;2023-01-23T09:08:14;99392.91;;;1.75;85.59
22181;BME280;11256;50.830;12.834;2023-01-23T09:13:15;99395.88;;;1.80;85.66
22181;BME280;11256;50.830;12.834;2023-01-23T09:18:15;99384.28;;;1.73;85.61
22181;BME280;11256;50.830;12.834;2023-01-23T09:23:18;99380.69;;;1.81;85.06
22181;BME280;11256;50.830;12.834;2023-01-23T09:28:18;99401.63;;;1.92;84.85
22181;BME280;11256;50.830;12.834;2023-01-23T09:33:18;99392.19;;;1.96;84.53
22181;BME280;11256;50.830;12.834;2023-01-23T09:38:23;99387.41;;;2.06;84.96
22181;BME280;11256;50.830;12.834;2023-01-23T09:43:39;99397.56;;;2.10;84.71
22181;BME280;11256;50.830;12.834;2023-01-23T09:48:45;99379.66;;;2.11;84.72
22181;BME280;11256;50.830;12.834;2023-01-23T09:53:46;99394.59;;;2.20;84.22
22181;BME280;11256;50.830;12.834;2023-01-23T10:03:57;99363.81;;;2.24;84.56
22181;BME280;11256;50.830;12.834;2023-01-23T10:09:15;99371.25;;;2.28;84.45
22181;BME280;11256;50.830;12.834;2023-01-23T10:14:26;99383.72;;;2.36;84.45
22181;BME280;11256;50.830;12.834;2023-01-23T10:24:51;99378.44;;;2.42;83.96
22181;BME280;11256;50.830;12.834;2023-01-23T10:29:59;99362.31;;;2.36;84.39
22181;BME280;11256;50.830;12.834;2023-01-23T10:35:10;99377.88;;;2.47;84.46
22181;BME280;11256;50.830;12.834;2023-01-23T10:40:18;99367.84;;;2.34;84.12
22181;BME280;11256;50.830;12.834;2023-01-23T10:45:38;99386.25;;;2.44;84.57
22181;BME280;11256;50.830;12.834;2023-01-23T10:50:39;99385.91;;;2.47;84.85
22181;BME280;11256;50.830;12.834;2023-01-23T10:55:44;99379.72;;;2.46;84.18
22181;BME280;11256;50.830;12.834;2023-01-23T11:00:45;99374.44;;;2.53;84.59
22181;BME280;11256;50.830;12.834;2023-01-23T11:05:54;99377.00;;;2.61;84.23
22181;BME280;11256;50.830;12.834;2023-01-23T11:16:15;99358.41;;;2.53;83.86
22181;BME280;11256;50.830;12.834;2023-01-23T11:21:23;99364.91;;;2.65;83.83
22181;BME280;11256;50.830;12.834;2023-01-23T11:26:31;99377.94;;;2.68;83.73
22181;BME280;11256;50.830;12.834;2023-01-23T11:31:32;99376.28;;;2.67;83.74
22181;BME280;11256;50.830;12.834;2023-01-23T11:36:58;99371.81;;;2.74;83.95
22181;BME280;11256;50.830;12.834;2023-01-23T11:42:01;99357.91;;;2.64;83.86
22181;BME280;11256;50.830;12.834;2023-01-23T11:57:59;99360.22;;;2.67;83.94
22181;BME280;11256;50.830;12.834;2023-01-23T12:08:35;99357.78;;;2.72;83.95
22181;BME280;11256;50.830;12.834;2023-01-23T12:14:01;99365.06;;;2.78;83.94
22181;BME280;11256;50.830;12.834;2023-01-23T12:19:17;99351.69;;;2.78;83.81
22181;BME280;11256;50.830;12.834;2023-01-23T12:29:59;99352.06;;;2.75;83.69
22181;BME280;11256;50.830;12.834;2023-01-23T12:35:18;99358.25;;;2.75;83.82
22181;BME280;11256;50.830;12.834;2023-01-23T12:40:42;99362.69;;;2.68;83.41
22181;BME280;11256;50.830;12.834;2023-01-23T12:45:52;99358.28;;;2.61;83.80
22181;BME280;11256;50.830;12.834;2023-01-23T12:51:04;99353.50;;;2.56;84.09
22181;BME280;11256;50.830;12.834;2023-01-23T12:56:24;99358.31;;;2.46;84.16
22181;BME280;11256;50.830;12.834;2023-01-23T13:22:37;99372.09;;;2.14;85.78
22181;BME280;11256;50.830;12.834;2023-01-23T13:32:44;99366.13;;;2.12;85.46
22181;BME280;11256;50.830;12.834;2023-01-23T13:37:48;99364.00;;;2.08;85.95
22181;BME280;11256;50.830;12.834;2023-01-23T13:42:50;99356.06;;;2.00;86.26
22181;BME280;11256;50.830;12.834;2023-01-23T13:53:24;99358.00;;;1.91;86.25
22181;BME280;11256;50.830;12.834;2023-01-23T13:58:44;99348.44;;;1.82;86.79
22181;BME280;11256;50.830;12.834;2023-01-23T14:03:53;99350.91;;;1.84;86.62
22181;BME280;11256;50.830;12.834;2023-01-23T14:09:20;99357.91;;;1.85;87.17
22181;BME280;11256;50.830;12.834;2023-01-23T14:14:21;99355.44;;;1.83;86.44
22181;BME280;11256;50.830;12.834;2023-01-23T14:19:55;99343.63;;;1.78;86.99
22181;BME280;11256;50.830;12.834;2023-01-23T14:24:56;99357.38;;;1.75;87.01
22181;BME280;11256;50.830;12.834;2023-01-23T14:30:23;99361.59;;;1.84;87.18
22181;BME280;11256;50.830;12.834;2023-01-23T14:35:31;99365.66;;;1.80;86.93
22181;BME280;11256;50.830;12.834;2023-01-23T14:40:32;99378.38;;;1.78;87.18
22181;BME280;11256;50.830;12.834;2023-01-23T14:45:33;99355.16;;;1.64;87.89
22181;BME280;11256;50.830;12.834;2023-01-23T14:50:34;99366.47;;;1.66;87.62
22181;BME280;11256;50.830;12.834;2023-01-23T14:55:38;99372.91;;;1.57;87.88
22181;BME280;11256;50.830;12.834;2023-01-23T15:00:40;99358.63;;;1.50;88.91
22181;BME280;11256;50.830;12.834;2023-01-23T15:05:55;99338.00;;;1.44;88.61
22181;BME280;11256;50.830;12.834;2023-01-23T15:10:58;99351.25;;;1.52;87.78
22181;BME280;11256;50.830;12.834;2023-01-23T15:16:03;99352.94;;;1.53;88.43
22181;BME280;11256;50.830;12.834;2023-01-23T15:21:07;99353.91;;;1.52;88.52
22181;BME280;11256;50.830;12.834;2023-01-23T15:47:12;99374.06;;;1.40;88.91
22181;BME280;11256;50.830;12.834;2023-01-23T15:52:27;99365.78;;;1.35;88.62
22181;BME280;11256;50.830;12.834;2023-01-23T15:57:28;99368.72;;;1.40;88.91
22181;BME280;11256;50.830;12.834;2023-01-23T16:02:28;99374.06;;;1.40;88.23
22181;BME280;11256;50.830;12.834;2023-01-23T16:07:32;99383.56;;;1.42;88.60
22181;BME280;11256;50.830;12.834;2023-01-23T16:12:33;99389.44;;;1.38;88.59
22181;BME280;11256;50.830;12.834;2023-01-23T16:17:37;99383.44;;;1.36;88.21
22181;BME280;11256;50.830;12.834;2023-01-23T16:22:38;99384.75;;;1.40;88.42
22181;BME280;11256;50.830;12.834;2023-01-23T16:27:38;99390.56;;;1.43;88.15
22181;BME280;11256;50.830;12.834;2023-01-23T16:32:39;99399.41;;;1.44;88.14
22181;BME280;11256;50.830;12.834;2023-01-23T16:37:41;99396.16;;;1.34;88.45
22181;BME280;11256;50.830;12.834;2023-01-23T16:42:44;99400.19;;;1.30;88.48
22181;BME280;11256;50.830;12.834;2023-01-23T16:47:45;99428.19;;;1.34;89.10
22181;BME280;11256;50.830;12.834;2023-01-23T16:52:53;99416.59;;;1.27;89.02
22181;BME280;11256;50.830;12.834;2023-01-23T16:57:55;99427.91;;;1.29;89.13
22181;BME280;11256;50.830;12.834;2023-01-23T17:03:00;99442.44;;;1.26;88.90
22181;BME280;11256;50.830;12.834;2023-01-23T17:08:22;99442.81;;;1.23;89.22
22181;BME280;11256;50.830;12.834;2023-01-23T17:13:24;99428.69;;;1.15;89.05
22181;BME280;11256;50.830;12.834;2023-01-23T17:18:31;99438.94;;;1.26;88.83
22181;BME280;11256;50.830;12.834;2023-01-23T17:23:32;99444.00;;;1.21;88.92
22181;BME280;11256;50.830;12.834;2023-01-23T17:28:33;99455.13;;;1.24;89.16
22181;BME280;11256;50.830;12.834;2023-01-23T17:33:33;99450.03;;;1.15;88.83
22181;BME280;11256;50.830;12.834;2023-01-23T17:38:34;99459.00;;;1.22;89.18
22181;BME280;11256;50.830;12.834;2023-01-23T17:43:34;99453.00;;;1.20;88.82
22181;BME280;11256;50.830;12.834;2023-01-23T17:48:37;99452.63;;;1.23;88.76
22181;BME280;11256;50.830;12.834;2023-01-23T17:53:39;99461.38;;;1.17;89.18
22181;BME280;11256;50.830;12.834;2023-01-23T17:58:39;99464.88;;;1.17;89.37
22181;BME280;11256;50.830;12.834;2023-01-23T18:03:40;99455.38;;;1.15;89.61
22181;BME280;11256;50.830;12.834;2023-01-23T18:08:40;99457.22;;;1.14;90.28
22181;BME280;11256;50.830;12.834;2023-01-23T18:19:14;99455.97;;;1.02;91.20
22181;BME280;11256;50.830;12.834;2023-01-23T18:24:29;99462.81;;;0.97;91.78
22181;BME280;11256;50.830;12.834;2023-01-23T18:29:41;99468.53;;;0.94;92.14
22181;BME280;11256;50.830;12.834;2023-01-23T18:34:57;99449.41;;;0.82;91.98
22181;BME280;11256;50.830;12.834;2023-01-23T18:45:16;99453.06;;;0.81;92.62
22181;BME280;11256;50.830;12.834;2023-01-23T18:50:18;99452.59;;;0.78;92.75
22181;BME280;11256;50.830;12.834;2023-01-23T18:55:42;99465.88;;;0.86;92.52
22181;BME280;11256;50.830;12.834;2023-01-23T19:06:19;99459.06;;;0.83;93.27
22181;BME280;11256;50.830;12.834;2023-01-23T19:16:58;99461.72;;;0.83;93.06
22181;BME280;11256;50.830;12.834;2023-01-23T19:22:00;99469.94;;;0.82;93.46
22181;BME280;11256;50.830;12.834;2023-01-23T19:27:12;99465.56;;;0.81;93.51
22181;BME280;11256;50.830;12.834;2023-01-23T19:32:16;99465.94;;;0.78;93.19
22181;BME280;11256;50.830;12.834;2023-01-23T19:37:16;99466.09;;;0.76;93.42
22181;BME280;11256;50.830;12.834;2023-01-23T19:42:17;99471.91;;;0.80;93.63
22181;BME280;11256;50.830;12.834;2023-01-23T19:47:18;99487.94;;;0.80;93.52
22181;BME280;11256;50.830;12.834;2023-01-23T19:52:18;99479.91;;;0.80;93.54
22181;BME280;11256;50.830;12.834;2023-01-23T19:57:19;99484.25;;;0.81;93.41
22181;BME280;11256;50.830;12.834;2023-01-23T20:02:19;99474.41;;;0.81;93.26
22181;BME280;11256;50.830;12.834;2023-01-23T20:07:20;99480.59;;;0.82;93.20
22181;BME280;11256;50.830;12.834;2023-01-23T20:12:20;99487.59;;;0.83;93.48
22181;BME280;11256;50.830;12.834;2023-01-23T20:17:20;99483.44;;;0.80;92.85
22181;BME280;11256;50.830;12.834;2023-01-23T20:22:21;99483.06;;;0.83;93.29
22181;BME280;11256;50.830;12.834;2023-01-23T20:27:21;99481.25;;;0.84;93.16
22181;BME280;11256;50.830;12.834;2023-01-23T20:32:22;99486.59;;;0.84;92.79
22181;BME280;11256;50.830;12.834;2023-01-23T20:37:22;99484.25;;;0.81;92.69
22181;BME280;11256;50.830;12.834;2023-01-23T20:42:23;99476.44;;;0.79;92.81
22181;BME280;11256;50.830;12.834;2023-01-23T20:47:23;99475.25;;;0.82;93.12
22181;BME280;11256;50.830;12.834;2023-01-23T20:52:24;99480.59;;;0.82;92.24
22181;BME280;11256;50.830;12.834;2023-01-23T20:57:43;99469.94;;;0.82;92.73
22181;BME280;11256;50.830;12.834;2023-01-23T21:03:02;99478.09;;;0.80;92.18
22181;BME280;11256;50.830;12.834;2023-01-23T21:08:02;99473.94;;;0.78;92.72
22181;BME280;11256;50.830;12.834;2023-01-23T21:13:02;99465.25;;;0.76;92.72
22181;BME280;11256;50.830;12.834;2023-01-23T21:18:03;99472.63;;;0.74;93.00
22181;BME280;11256;50.830;12.834;2023-01-23T21:23:03;99467.28;;;0.74;92.89
22181;BME280;11256;50.830;12.834;2023-01-23T21:28:04;99461.00;;;0.67;92.67
22181;BME280;11256;50.830;12.834;2023-01-23T21:33:05;99468.63;;;0.70;93.10
22181;BME280;11256;50.830;12.834;2023-01-23T21:38:06;99484.94;;;0.75;92.21
22181;BME280;11256;50.830;12.834;2023-01-23T21:43:06;99491.94;;;0.76;92.86
22181;BME280;11256;50.830;12.834;2023-01-23T21:48:06;99490.28;;;0.75;92.43
22181;BME280;11256;50.830;12.834;2023-01-23T21:53:07;99487.28;;;0.78;92.47
22181;BME280;11256;50.830;12.834;2023-01-23T21:58:07;99500.44;;;0.79;92.29
22181;BME280;11256;50.830;12.834;2023-01-23T22:03:07;99495.28;;;0.78;92.69
22181;BME280;11256;50.830;12.834;2023-01-23T22:08:08;99478.31;;;0.71;92.26
22181;BME280;11256;50.830;12.834;2023-01-23T22:13:08;99483.28;;;0.74;92.30
22181;BME280;11256;50.830;12.834;2023-01-23T22:18:08;99485.44;;;0.78;92.26
22181;BME280;11256;50.830;12.834;2023-01-23T22:23:09;99476.63;;;0.70;92.63
22181;BME280;11256;50.830;12.834;2023-01-23T22:28:09;99492.63;;;0.78;92.69
22181;BME280;11256;50.830;12.834;2023-01-23T22:33:09;99482.44;;;0.73;92.38
22181;BME280;11256;50.830;12.834;2023-01-23T22:38:11;99474.97;;;0.69;92.36
22181;BME280;11256;50.830;12.834;2023-01-23T22:43:11;99491.59;;;0.79;92.60
22181;BME280;11256;50.830;12.834;2023-01-23T22:48:12;99482.16;;;0.68;92.75
22181;BME280;11256;50.830;12.834;2023-01-23T22:53:12;99503.28;;;0.78;92.69
22181;BME280;11256;50.830;12.834;2023-01-23T22:58:12;99504.28;;;0.77;93.11
22181;BME280;11256;50.830;12.834;2023-01-23T23:03:13;99477.97;;;0.74;92.79
22181;BME280;11256;50.830;12.834;2023-01-23T23:08:13;99492.78;;;0.76;92.67
22181;BME280;11256;50.830;12.834;2023-01-23T23:13:13;99467.16;;;0.67;92.68
22181;BME280;11256;50.830;12.834;2023-01-23T23:18:13;99480.47;;;0.75;92.63
22181;BME280;11256;50.830;12.834;2023-01-23T23:23:14;99469.00;;;0.67;92.64
22181;BME280;11256;50.830;12.834;2023-01-23T23:28:14;99478.59;;;0.76;92.37
22181;BME280;11256;50.830;12.834;2023-01-23T23:33:15;99475.66;;;0.71;92.42
22181;BME280;11256;50.830;12.834;2023-01-23T23:38:16;99465.00;;;0.63;92.64
22181;BME280;11256;50.830;12.834;2023-01-23T23:43:16;99485.78;;;0.75;92.78
22181;BME280;11256;50.830;12.834;2023-01-23T23:48:16;99468.69;;;0.62;92.47
22181;BME280;11256;50.830;12.834;2023-01-23T23:53:17;99491.13;;;0.75;92.84
22181;BME280;11256;50.830;12.834;2023-01-23T23:58:17;99490.28;;;0.75;92.78
